Terminal Aerodrome Forecast
Issued by NWS Wilmington, OH

Current Version | Previous Version | Graphics & Text | Print | Product List | Glossary On
Versions: 1 2 3 4 5 6 7 8 9 10 11 12 13 14 15 16 17 18 19 20 21 22 23 24 25 26 27
000
FTUS41 KILN 170900 AAA
TAFCVG
TAF AMD
KCVG 170900Z 1709/1812 20008KT P6SM SCT025 SCT250
     FM171500 24012G22KT P6SM SCT040 BKN250
     FM180000 28008KT P6SM BKN025
      TEMPO 1808/1812 5SM BR OVC015=

USA.gov is the U.S. government's official web portal to all federal, state and local government web resources and services.